sensor_id;sensor_type;location;lat;lon;timestamp;temperature;humidity
7496;DHT22;3789;47.064;15.482;2022-09-09T00:02:22;15.50;99.90
7496;DHT22;3789;47.064;15.482;2022-09-09T00:08:00;15.50;99.90
7496;DHT22;3789;47.064;15.482;2022-09-09T00:10:43;15.30;99.90
7496;DHT22;3789;47.064;15.482;2022-09-09T00:13:34;15.10;99.90
7496;DHT22;3789;47.064;15.482;2022-09-09T00:16:35;14.90;99.90
7496;DHT22;3789;47.064;15.482;2022-09-09T00:22:10;14.90;99.90
7496;DHT22;3789;47.064;15.482;2022-09-09T00:24:52;14.80;99.90
7496;DHT22;3789;47.064;15.482;2022-09-09T00:27:47;14.70;99.90
7496;DHT22;3789;47.064;15.482;2022-09-09T00:30:24;14.50;99.90
7496;DHT22;3789;47.064;15.482;2022-09-09T00:33:18;14.30;99.90
7496;DHT22;3789;47.064;15.482;2022-09-09T00:36:04;14.30;99.90
7496;DHT22;3789;47.064;15.482;2022-09-09T00:38:51;14.20;99.90
7496;DHT22;3789;47.064;15.482;2022-09-09T00:47:50;14.40;99.90
7496;DHT22;3789;47.064;15.482;2022-09-09T00:50:49;14.50;99.90
7496;DHT22;3789;47.064;15.482;2022-09-09T00:56:37;13.90;99.90
7496;DHT22;3789;47.064;15.482;2022-09-09T00:59:50;14.00;99.90
7496;DHT22;3789;47.064;15.482;2022-09-09T01:05:49;14.10;99.90
7496;DHT22;3789;47.064;15.482;2022-09-09T01:08:42;14.10;99.90
7496;DHT22;3789;47.064;15.482;2022-09-09T01:17:20;14.00;99.90
7496;DHT22;3789;47.064;15.482;2022-09-09T01:23:04;14.00;99.90
7496;DHT22;3789;47.064;15.482;2022-09-09T01:28:51;14.00;99.90
7496;DHT22;3789;47.064;15.482;2022-09-09T01:31:38;14.10;99.90
7496;DHT22;3789;47.064;15.482;2022-09-09T01:34:15;14.10;99.90
7496;DHT22;3789;47.064;15.482;2022-09-09T01:36:49;13.80;99.90
7496;DHT22;3789;47.064;15.482;2022-09-09T01:39:20;13.50;99.90
7496;DHT22;3789;47.064;15.482;2022-09-09T01:41:47;13.40;99.90
7496;DHT22;3789;47.064;15.482;2022-09-09T01:44:15;13.40;99.90
7496;DHT22;3789;47.064;15.482;2022-09-09T01:46:44;13.40;99.90
7496;DHT22;3789;47.064;15.482;2022-09-09T01:49:12;13.50;99.90
7496;DHT22;3789;47.064;15.482;2022-09-09T01:51:41;13.50;99.90
7496;DHT22;3789;47.064;15.482;2022-09-09T01:54:09;13.60;99.90
7496;DHT22;3789;47.064;15.482;2022-09-09T01:57:11;13.60;99.90
7496;DHT22;3789;47.064;15.482;2022-09-09T02:02:32;13.80;99.90
7496;DHT22;3789;47.064;15.482;2022-09-09T02:07:49;13.70;99.90
7496;DHT22;3789;47.064;15.482;2022-09-09T02:10:25;13.80;99.90
7496;DHT22;3789;47.064;15.482;2022-09-09T02:13:10;13.70;99.90
7496;DHT22;3789;47.064;15.482;2022-09-09T02:18:13;13.70;99.90
7496;DHT22;3789;47.064;15.482;2022-09-09T02:20:42;13.70;99.90
7496;DHT22;3789;47.064;15.482;2022-09-09T02:23:11;13.60;99.90
7496;DHT22;3789;47.064;15.482;2022-09-09T02:25:40;13.60;99.90
7496;DHT22;3789;47.064;15.482;2022-09-09T02:28:09;13.80;99.90
7496;DHT22;3789;47.064;15.482;2022-09-09T02:30:38;13.90;99.90
7496;DHT22;3789;47.064;15.482;2022-09-09T02:33:07;13.90;99.90
7496;DHT22;3789;47.064;15.482;2022-09-09T02:35:37;13.90;99.90
7496;DHT22;3789;47.064;15.482;2022-09-09T02:38:08;13.90;99.90
7496;DHT22;3789;47.064;15.482;2022-09-09T02:40:36;13.80;99.90
7496;DHT22;3789;47.064;15.482;2022-09-09T02:43:03;13.70;99.90
7496;DHT22;3789;47.064;15.482;2022-09-09T02:45:41;13.50;99.90
7496;DHT22;3789;47.064;15.482;2022-09-09T02:51:19;13.70;99.90
7496;DHT22;3789;47.064;15.482;2022-09-09T02:56:53;13.80;99.90
7496;DHT22;3789;47.064;15.482;2022-09-09T02:59:22;13.60;99.90
7496;DHT22;3789;47.064;15.482;2022-09-09T03:01:49;13.60;99.90
7496;DHT22;3789;47.064;15.482;2022-09-09T03:04:16;13.80;99.90
7496;DHT22;3789;47.064;15.482;2022-09-09T03:06:43;13.90;99.90
7496;DHT22;3789;47.064;15.482;2022-09-09T03:09:11;13.90;99.90
7496;DHT22;3789;47.064;15.482;2022-09-09T03:11:38;13.80;99.90
7496;DHT22;3789;47.064;15.482;2022-09-09T03:14:05;13.70;99.90
7496;DHT22;3789;47.064;15.482;2022-09-09T03:16:33;13.60;99.90
7496;DHT22;3789;47.064;15.482;2022-09-09T03:19:01;13.50;99.90
7496;DHT22;3789;47.064;15.482;2022-09-09T03:21:29;13.50;99.90
7496;DHT22;3789;47.064;15.482;2022-09-09T03:23:56;13.60;99.90
7496;DHT22;3789;47.064;15.482;2022-09-09T03:26:25;13.80;99.90
7496;DHT22;3789;47.064;15.482;2022-09-09T03:28:52;13.80;99.90
7496;DHT22;3789;47.064;15.482;2022-09-09T03:31:20;13.70;99.90
7496;DHT22;3789;47.064;15.482;2022-09-09T03:33:47;13.80;99.90
7496;DHT22;3789;47.064;15.482;2022-09-09T03:36:15;13.90;99.90
7496;DHT22;3789;47.064;15.482;2022-09-09T03:38:42;13.90;99.90
7496;DHT22;3789;47.064;15.482;2022-09-09T03:41:09;14.10;99.90
7496;DHT22;3789;47.064;15.482;2022-09-09T03:43:36;14.20;99.90
7496;DHT22;3789;47.064;15.482;2022-09-09T03:46:04;14.30;99.90
7496;DHT22;3789;47.064;15.482;2022-09-09T03:48:31;14.10;99.90
7496;DHT22;3789;47.064;15.482;2022-09-09T03:50:59;13.80;99.90
7496;DHT22;3789;47.064;15.482;2022-09-09T03:53:28;13.70;99.90
7496;DHT22;3789;47.064;15.482;2022-09-09T03:55:57;13.70;99.90
7496;DHT22;3789;47.064;15.482;2022-09-09T03:58:27;13.60;99.90
7496;DHT22;3789;47.064;15.482;2022-09-09T04:01:00;13.40;99.90
7496;DHT22;3789;47.064;15.482;2022-09-09T04:03:29;13.50;99.90
7496;DHT22;3789;47.064;15.482;2022-09-09T04:05:58;13.50;99.90
7496;DHT22;3789;47.064;15.482;2022-09-09T04:08:26;13.50;99.90
7496;DHT22;3789;47.064;15.482;2022-09-09T04:10:54;13.40;99.90
7496;DHT22;3789;47.064;15.482;2022-09-09T04:13:25;13.40;99.90
7496;DHT22;3789;47.064;15.482;2022-09-09T04:15:55;13.30;99.90
7496;DHT22;3789;47.064;15.482;2022-09-09T04:18:23;13.30;99.90
7496;DHT22;3789;47.064;15.482;2022-09-09T04:20:52;13.30;99.90
7496;DHT22;3789;47.064;15.482;2022-09-09T04:23:20;13.30;99.90
7496;DHT22;3789;47.064;15.482;2022-09-09T04:25:50;13.30;99.90
7496;DHT22;3789;47.064;15.482;2022-09-09T04:28:20;13.30;99.90
7496;DHT22;3789;47.064;15.482;2022-09-09T04:30:48;13.30;99.90
7496;DHT22;3789;47.064;15.482;2022-09-09T04:33:15;13.30;99.90
7496;DHT22;3789;47.064;15.482;2022-09-09T04:35:45;13.30;99.90
7496;DHT22;3789;47.064;15.482;2022-09-09T04:38:15;13.30;99.90
7496;DHT22;3789;47.064;15.482;2022-09-09T04:40:44;13.20;99.90
7496;DHT22;3789;47.064;15.482;2022-09-09T04:43:11;13.30;99.90
7496;DHT22;3789;47.064;15.482;2022-09-09T04:45:41;13.30;99.90
7496;DHT22;3789;47.064;15.482;2022-09-09T04:48:09;13.40;99.90
7496;DHT22;3789;47.064;15.482;2022-09-09T04:50:36;13.50;99.90
7496;DHT22;3789;47.064;15.482;2022-09-09T04:53:04;13.50;99.90
7496;DHT22;3789;47.064;15.482;2022-09-09T04:55:34;13.40;99.90
7496;DHT22;3789;47.064;15.482;2022-09-09T04:58:06;13.30;99.90
7496;DHT22;3789;47.064;15.482;2022-09-09T05:00:35;13.40;99.90
7496;DHT22;3789;47.064;15.482;2022-09-09T05:03:04;13.50;99.90
7496;DHT22;3789;47.064;15.482;2022-09-09T05:05:33;13.60;99.90
7496;DHT22;3789;47.064;15.482;2022-09-09T05:08:05;13.70;99.90
7496;DHT22;3789;47.064;15.482;2022-09-09T05:10:34;13.70;99.90
7496;DHT22;3789;47.064;15.482;2022-09-09T05:13:03;13.50;99.90
7496;DHT22;3789;47.064;15.482;2022-09-09T05:15:31;13.50;99.90
7496;DHT22;3789;47.064;15.482;2022-09-09T05:18:01;13.60;99.90
7496;DHT22;3789;47.064;15.482;2022-09-09T05:20:30;13.60;99.90
7496;DHT22;3789;47.064;15.482;2022-09-09T05:22:58;13.60;99.90
7496;DHT22;3789;47.064;15.482;2022-09-09T05:25:25;13.70;99.90
7496;DHT22;3789;47.064;15.482;2022-09-09T05:27:52;13.70;99.90
7496;DHT22;3789;47.064;15.482;2022-09-09T05:30:21;13.80;99.90
7496;DHT22;3789;47.064;15.482;2022-09-09T05:32:49;14.00;99.90
7496;DHT22;3789;47.064;15.482;2022-09-09T05:35:17;14.10;99.90
7496;DHT22;3789;47.064;15.482;2022-09-09T05:37:46;14.30;99.90
7496;DHT22;3789;47.064;15.482;2022-09-09T05:40:13;14.50;99.90
7496;DHT22;3789;47.064;15.482;2022-09-09T05:42:41;14.70;99.90
7496;DHT22;3789;47.064;15.482;2022-09-09T05:45:08;14.90;99.90
7496;DHT22;3789;47.064;15.482;2022-09-09T05:47:36;15.10;99.90
7496;DHT22;3789;47.064;15.482;2022-09-09T05:50:04;15.40;99.90
7496;DHT22;3789;47.064;15.482;2022-09-09T05:52:32;15.60;99.90
7496;DHT22;3789;47.064;15.482;2022-09-09T05:54:59;15.80;99.90
7496;DHT22;3789;47.064;15.482;2022-09-09T05:57:26;16.10;99.90
7496;DHT22;3789;47.064;15.482;2022-09-09T05:59:53;16.40;99.90
7496;DHT22;3789;47.064;15.482;2022-09-09T06:02:20;16.60;99.90
7496;DHT22;3789;47.064;15.482;2022-09-09T06:04:47;16.80;99.90
7496;DHT22;3789;47.064;15.482;2022-09-09T06:07:33;17.10;99.90
7496;DHT22;3789;47.064;15.482;2022-09-09T06:10:02;17.30;99.90
7496;DHT22;3789;47.064;15.482;2022-09-09T06:12:29;17.30;99.90
7496;DHT22;3789;47.064;15.482;2022-09-09T06:15:00;17.40;99.90
7496;DHT22;3789;47.064;15.482;2022-09-09T06:17:29;17.40;99.90
7496;DHT22;3789;47.064;15.482;2022-09-09T06:19:56;17.30;99.90
7496;DHT22;3789;47.064;15.482;2022-09-09T06:22:24;17.30;99.90
7496;DHT22;3789;47.064;15.482;2022-09-09T06:24:51;17.20;99.90
7496;DHT22;3789;47.064;15.482;2022-09-09T06:27:18;17.00;99.90
7496;DHT22;3789;47.064;15.482;2022-09-09T06:29:46;16.90;99.90
7496;DHT22;3789;47.064;15.482;2022-09-09T06:32:13;17.10;99.90
7496;DHT22;3789;47.064;15.482;2022-09-09T06:34:41;17.30;99.90
7496;DHT22;3789;47.064;15.482;2022-09-09T06:37:08;17.40;99.90
7496;DHT22;3789;47.064;15.482;2022-09-09T06:39:36;17.80;99.90
7496;DHT22;3789;47.064;15.482;2022-09-09T06:42:03;18.00;99.90
7496;DHT22;3789;47.064;15.482;2022-09-09T06:44:30;18.10;99.90
7496;DHT22;3789;47.064;15.482;2022-09-09T06:47:01;18.20;99.90
7496;DHT22;3789;47.064;15.482;2022-09-09T06:49:29;18.30;99.90
7496;DHT22;3789;47.064;15.482;2022-09-09T06:51:58;18.50;99.90
7496;DHT22;3789;47.064;15.482;2022-09-09T06:54:26;18.60;99.90
7496;DHT22;3789;47.064;15.482;2022-09-09T06:56:55;18.70;99.90
7496;DHT22;3789;47.064;15.482;2022-09-09T06:59:23;18.70;99.90
7496;DHT22;3789;47.064;15.482;2022-09-09T07:01:50;18.70;99.90
7496;DHT22;3789;47.064;15.482;2022-09-09T07:04:22;18.70;99.90
7496;DHT22;3789;47.064;15.482;2022-09-09T07:06:51;18.70;99.90
7496;DHT22;3789;47.064;15.482;2022-09-09T07:09:20;18.60;99.90
7496;DHT22;3789;47.064;15.482;2022-09-09T07:11:53;18.50;99.90
7496;DHT22;3789;47.064;15.482;2022-09-09T07:14:22;18.50;99.90
7496;DHT22;3789;47.064;15.482;2022-09-09T07:16:51;18.60;99.90
7496;DHT22;3789;47.064;15.482;2022-09-09T07:19:24;18.60;99.90
7496;DHT22;3789;47.064;15.482;2022-09-09T07:21:51;18.50;99.90
7496;DHT22;3789;47.064;15.482;2022-09-09T07:24:18;18.50;99.90
7496;DHT22;3789;47.064;15.482;2022-09-09T07:26:48;18.40;99.90
7496;DHT22;3789;47.064;15.482;2022-09-09T07:29:15;18.50;99.90
7496;DHT22;3789;47.064;15.482;2022-09-09T07:31:48;18.50;99.90
7496;DHT22;3789;47.064;15.482;2022-09-09T07:34:17;18.50;99.90
7496;DHT22;3789;47.064;15.482;2022-09-09T07:36:46;18.40;99.90
7496;DHT22;3789;47.064;15.482;2022-09-09T07:39:15;18.40;99.90
7496;DHT22;3789;47.064;15.482;2022-09-09T07:41:46;18.40;99.90
7496;DHT22;3789;47.064;15.482;2022-09-09T07:44:17;18.40;99.90
7496;DHT22;3789;47.064;15.482;2022-09-09T07:46:45;18.40;99.90
7496;DHT22;3789;47.064;15.482;2022-09-09T07:49:15;18.40;99.90
7496;DHT22;3789;47.064;15.482;2022-09-09T07:51:50;18.40;99.90
7496;DHT22;3789;47.064;15.482;2022-09-09T07:54:19;18.40;99.90
7496;DHT22;3789;47.064;15.482;2022-09-09T07:56:52;18.40;99.90
7496;DHT22;3789;47.064;15.482;2022-09-09T07:59:20;18.40;99.90
7496;DHT22;3789;47.064;15.482;2022-09-09T08:01:52;18.40;99.90
7496;DHT22;3789;47.064;15.482;2022-09-09T08:04:24;18.50;99.90
7496;DHT22;3789;47.064;15.482;2022-09-09T08:06:57;18.50;99.90
7496;DHT22;3789;47.064;15.482;2022-09-09T08:09:26;18.50;99.90
7496;DHT22;3789;47.064;15.482;2022-09-09T08:11:56;18.40;99.90
7496;DHT22;3789;47.064;15.482;2022-09-09T08:14:24;18.40;99.90
7496;DHT22;3789;47.064;15.482;2022-09-09T08:16:51;18.40;99.90
7496;DHT22;3789;47.064;15.482;2022-09-09T08:19:21;18.40;99.90
7496;DHT22;3789;47.064;15.482;2022-09-09T08:21:50;18.40;99.90
7496;DHT22;3789;47.064;15.482;2022-09-09T08:24:17;18.30;99.90
7496;DHT22;3789;47.064;15.482;2022-09-09T08:26:48;18.10;99.90
7496;DHT22;3789;47.064;15.482;2022-09-09T08:29:18;18.10;99.90
7496;DHT22;3789;47.064;15.482;2022-09-09T08:31:55;17.90;99.90
7496;DHT22;3789;47.064;15.482;2022-09-09T08:34:33;17.80;99.90
7496;DHT22;3789;47.064;15.482;2022-09-09T08:37:00;17.60;99.90
7496;DHT22;3789;47.064;15.482;2022-09-09T08:39:29;17.40;99.90
7496;DHT22;3789;47.064;15.482;2022-09-09T08:45:01;17.60;99.90
7496;DHT22;3789;47.064;15.482;2022-09-09T08:50:42;18.00;99.90
7496;DHT22;3789;47.064;15.482;2022-09-09T08:53:23;18.20;99.90
7496;DHT22;3789;47.064;15.482;2022-09-09T08:55:55;18.30;99.90
7496;DHT22;3789;47.064;15.482;2022-09-09T08:58:31;18.30;99.90
7496;DHT22;3789;47.064;15.482;2022-09-09T09:12:35;18.60;99.90
7496;DHT22;3789;47.064;15.482;2022-09-09T09:15:18;18.80;99.90
7496;DHT22;3789;47.064;15.482;2022-09-09T09:17:58;19.00;99.90
7496;DHT22;3789;47.064;15.482;2022-09-09T09:20:56;19.20;99.90
7496;DHT22;3789;47.064;15.482;2022-09-09T09:23:42;19.30;99.90
7496;DHT22;3789;47.064;15.482;2022-09-09T09:26:12;19.50;99.90
7496;DHT22;3789;47.064;15.482;2022-09-09T09:28:39;19.70;99.90
7496;DHT22;3789;47.064;15.482;2022-09-09T09:31:13;20.00;99.90
7496;DHT22;3789;47.064;15.482;2022-09-09T09:36:13;20.40;99.90
7496;DHT22;3789;47.064;15.482;2022-09-09T09:39:01;20.60;99.90
7496;DHT22;3789;47.064;15.482;2022-09-09T09:41:51;20.50;99.90
7496;DHT22;3789;47.064;15.482;2022-09-09T09:47:04;20.20;99.90
7496;DHT22;3789;47.064;15.482;2022-09-09T09:49:32;20.50;99.90
7496;DHT22;3789;47.064;15.482;2022-09-09T09:52:06;20.40;99.90
7496;DHT22;3789;47.064;15.482;2022-09-09T09:54:41;19.60;99.90
7496;DHT22;3789;47.064;15.482;2022-09-09T09:57:11;19.70;99.90
7496;DHT22;3789;47.064;15.482;2022-09-09T09:59:38;20.10;99.90
7496;DHT22;3789;47.064;15.482;2022-09-09T10:04:40;20.50;99.90
7496;DHT22;3789;47.064;15.482;2022-09-09T10:07:13;20.70;99.90
7496;DHT22;3789;47.064;15.482;2022-09-09T10:09:40;20.80;99.90
7496;DHT22;3789;47.064;15.482;2022-09-09T10:21:45;21.50;99.90
7496;DHT22;3789;47.064;15.482;2022-09-09T10:33:19;21.60;99.90
7496;DHT22;3789;47.064;15.482;2022-09-09T10:36:16;21.60;99.90
7496;DHT22;3789;47.064;15.482;2022-09-09T10:39:17;21.60;99.90
7496;DHT22;3789;47.064;15.482;2022-09-09T10:42:06;21.70;99.90
7496;DHT22;3789;47.064;15.482;2022-09-09T10:50:05;22.00;99.90
7496;DHT22;3789;47.064;15.482;2022-09-09T10:55:43;22.20;99.90
7496;DHT22;3789;47.064;15.482;2022-09-09T10:58:19;22.10;99.90
7496;DHT22;3789;47.064;15.482;2022-09-09T11:00:51;22.10;99.90
7496;DHT22;3789;47.064;15.482;2022-09-09T11:03:26;22.10;99.90
7496;DHT22;3789;47.064;15.482;2022-09-09T11:06:13;22.10;99.90
7496;DHT22;3789;47.064;15.482;2022-09-09T11:08:42;22.00;99.90
7496;DHT22;3789;47.064;15.482;2022-09-09T11:11:14;22.00;99.90
7496;DHT22;3789;47.064;15.482;2022-09-09T11:13:55;21.80;99.90
7496;DHT22;3789;47.064;15.482;2022-09-09T11:19:34;21.90;99.90
7496;DHT22;3789;47.064;15.482;2022-09-09T11:22:12;22.00;99.90
7496;DHT22;3789;47.064;15.482;2022-09-09T11:27:31;21.90;99.90
7496;DHT22;3789;47.064;15.482;2022-09-09T11:30:22;21.80;99.90
7496;DHT22;3789;47.064;15.482;2022-09-09T11:41:04;21.10;99.90
7496;DHT22;3789;47.064;15.482;2022-09-09T11:43:39;21.10;99.90
7496;DHT22;3789;47.064;15.482;2022-09-09T11:46:08;21.00;99.90
7496;DHT22;3789;47.064;15.482;2022-09-09T11:48:44;21.10;99.90
7496;DHT22;3789;47.064;15.482;2022-09-09T11:53:53;20.60;99.90
7496;DHT22;3789;47.064;15.482;2022-09-09T11:56:44;20.50;99.90
7496;DHT22;3789;47.064;15.482;2022-09-09T11:59:29;20.80;99.90
7496;DHT22;3789;47.064;15.482;2022-09-09T12:09:58;21.10;99.90
7496;DHT22;3789;47.064;15.482;2022-09-09T12:12:36;21.10;99.90
7496;DHT22;3789;47.064;15.482;2022-09-09T12:20:26;21.50;99.90
7496;DHT22;3789;47.064;15.482;2022-09-09T12:23:04;21.60;99.90
7496;DHT22;3789;47.064;15.482;2022-09-09T12:28:54;21.80;99.90
7496;DHT22;3789;47.064;15.482;2022-09-09T12:31:44;21.80;99.90
7496;DHT22;3789;47.064;15.482;2022-09-09T12:34:19;21.70;99.90
7496;DHT22;3789;47.064;15.482;2022-09-09T12:36:57;21.60;99.90
7496;DHT22;3789;47.064;15.482;2022-09-09T12:39:37;21.80;99.90
7496;DHT22;3789;47.064;15.482;2022-09-09T12:42:16;21.90;99.90
7496;DHT22;3789;47.064;15.482;2022-09-09T12:45:00;22.00;99.90
7496;DHT22;3789;47.064;15.482;2022-09-09T12:47:33;21.70;99.90
7496;DHT22;3789;47.064;15.482;2022-09-09T12:50:10;21.70;99.90
7496;DHT22;3789;47.064;15.482;2022-09-09T12:52:41;21.90;99.90
7496;DHT22;3789;47.064;15.482;2022-09-09T12:55:18;22.00;99.90
7496;DHT22;3789;47.064;15.482;2022-09-09T12:57:46;22.10;99.90
7496;DHT22;3789;47.064;15.482;2022-09-09T13:00:19;22.10;99.90
7496;DHT22;3789;47.064;15.482;2022-09-09T13:02:54;22.10;99.90
7496;DHT22;3789;47.064;15.482;2022-09-09T13:05:28;22.10;99.90
7496;DHT22;3789;47.064;15.482;2022-09-09T13:08:09;21.70;99.90
7496;DHT22;3789;47.064;15.482;2022-09-09T13:10:54;21.60;99.90
7496;DHT22;3789;47.064;15.482;2022-09-09T13:13:40;21.50;99.90
7496;DHT22;3789;47.064;15.482;2022-09-09T13:16:25;21.50;99.90
7496;DHT22;3789;47.064;15.482;2022-09-09T13:18:53;21.50;99.90
7496;DHT22;3789;47.064;15.482;2022-09-09T13:21:39;21.40;99.90
7496;DHT22;3789;47.064;15.482;2022-09-09T13:26:56;21.20;99.90
7496;DHT22;3789;47.064;15.482;2022-09-09T13:29:24;21.10;99.90
7496;DHT22;3789;47.064;15.482;2022-09-09T13:31:53;21.10;99.90
7496;DHT22;3789;47.064;15.482;2022-09-09T13:34:53;21.20;99.90
7496;DHT22;3789;47.064;15.482;2022-09-09T13:37:37;21.10;99.90
7496;DHT22;3789;47.064;15.482;2022-09-09T13:40:06;21.30;99.90
7496;DHT22;3789;47.064;15.482;2022-09-09T13:42:37;21.30;99.90
7496;DHT22;3789;47.064;15.482;2022-09-09T13:45:14;21.30;99.90
7496;DHT22;3789;47.064;15.482;2022-09-09T13:47:49;21.40;99.90
7496;DHT22;3789;47.064;15.482;2022-09-09T13:50:29;21.30;99.90
7496;DHT22;3789;47.064;15.482;2022-09-09T13:53:08;21.20;99.90
7496;DHT22;3789;47.064;15.482;2022-09-09T13:55:37;21.10;99.90
7496;DHT22;3789;47.064;15.482;2022-09-09T13:58:16;21.00;99.90
7496;DHT22;3789;47.064;15.482;2022-09-09T14:00:47;20.90;99.90
7496;DHT22;3789;47.064;15.482;2022-09-09T14:03:15;20.80;99.90
7496;DHT22;3789;47.064;15.482;2022-09-09T14:05:44;20.70;99.90
7496;DHT22;3789;47.064;15.482;2022-09-09T14:08:24;20.70;99.90
7496;DHT22;3789;47.064;15.482;2022-09-09T14:10:53;20.60;99.90
7496;DHT22;3789;47.064;15.482;2022-09-09T14:13:25;20.60;99.90
7496;DHT22;3789;47.064;15.482;2022-09-09T14:15:53;20.50;99.90
7496;DHT22;3789;47.064;15.482;2022-09-09T14:18:20;20.50;99.90
7496;DHT22;3789;47.064;15.482;2022-09-09T14:20:50;20.50;99.90
7496;DHT22;3789;47.064;15.482;2022-09-09T14:23:19;20.50;99.90
7496;DHT22;3789;47.064;15.482;2022-09-09T14:25:48;20.40;99.90
7496;DHT22;3789;47.064;15.482;2022-09-09T14:28:16;20.50;99.90
7496;DHT22;3789;47.064;15.482;2022-09-09T14:31:05;20.50;99.90
7496;DHT22;3789;47.064;15.482;2022-09-09T14:33:33;20.50;99.90
7496;DHT22;3789;47.064;15.482;2022-09-09T14:36:03;20.60;99.90
7496;DHT22;3789;47.064;15.482;2022-09-09T14:38:33;20.60;99.90
7496;DHT22;3789;47.064;15.482;2022-09-09T14:41:01;20.60;99.90
7496;DHT22;3789;47.064;15.482;2022-09-09T14:43:32;20.50;99.90
7496;DHT22;3789;47.064;15.482;2022-09-09T14:46:14;20.60;99.90
7496;DHT22;3789;47.064;15.482;2022-09-09T14:48:43;20.50;99.90
7496;DHT22;3789;47.064;15.482;2022-09-09T14:51:19;20.50;99.90
7496;DHT22;3789;47.064;15.482;2022-09-09T14:53:52;20.40;99.90
7496;DHT22;3789;47.064;15.482;2022-09-09T14:56:24;20.30;99.90
7496;DHT22;3789;47.064;15.482;2022-09-09T14:58:57;20.20;99.90
7496;DHT22;3789;47.064;15.482;2022-09-09T15:01:26;20.10;99.90
7496;DHT22;3789;47.064;15.482;2022-09-09T15:04:00;20.10;99.90
7496;DHT22;3789;47.064;15.482;2022-09-09T15:06:29;20.10;99.90
7496;DHT22;3789;47.064;15.482;2022-09-09T15:08:59;20.00;99.90
7496;DHT22;3789;47.064;15.482;2022-09-09T15:11:29;20.00;99.90
7496;DHT22;3789;47.064;15.482;2022-09-09T15:14:03;19.70;99.90
7496;DHT22;3789;47.064;15.482;2022-09-09T15:16:33;19.20;99.90
7496;DHT22;3789;47.064;15.482;2022-09-09T15:19:01;19.00;99.90
7496;DHT22;3789;47.064;15.482;2022-09-09T15:21:33;18.80;99.90
7496;DHT22;3789;47.064;15.482;2022-09-09T15:24:01;18.80;99.90
7496;DHT22;3789;47.064;15.482;2022-09-09T15:26:33;18.70;99.90
7496;DHT22;3789;47.064;15.482;2022-09-09T15:29:04;18.90;99.90
7496;DHT22;3789;47.064;15.482;2022-09-09T15:31:32;19.10;99.90
7496;DHT22;3789;47.064;15.482;2022-09-09T15:34:03;19.20;99.90
7496;DHT22;3789;47.064;15.482;2022-09-09T15:36:36;19.30;99.90
7496;DHT22;3789;47.064;15.482;2022-09-09T15:39:08;19.40;99.90
7496;DHT22;3789;47.064;15.482;2022-09-09T15:41:39;19.40;99.90
7496;DHT22;3789;47.064;15.482;2022-09-09T15:44:09;19.30;99.90
7496;DHT22;3789;47.064;15.482;2022-09-09T15:46:43;19.30;99.90
7496;DHT22;3789;47.064;15.482;2022-09-09T15:49:23;19.20;99.90
7496;DHT22;3789;47.064;15.482;2022-09-09T15:51:55;18.90;99.90
7496;DHT22;3789;47.064;15.482;2022-09-09T15:54:25;18.60;99.90
7496;DHT22;3789;47.064;15.482;2022-09-09T15:56:56;18.30;99.90
7496;DHT22;3789;47.064;15.482;2022-09-09T15:59:25;18.20;99.90
7496;DHT22;3789;47.064;15.482;2022-09-09T16:01:54;18.20;99.90
7496;DHT22;3789;47.064;15.482;2022-09-09T16:04:23;18.20;99.90
7496;DHT22;3789;47.064;15.482;2022-09-09T16:07:03;18.30;99.90
7496;DHT22;3789;47.064;15.482;2022-09-09T16:09:32;18.40;99.90
7496;DHT22;3789;47.064;15.482;2022-09-09T16:12:05;18.40;99.90
7496;DHT22;3789;47.064;15.482;2022-09-09T16:14:38;18.30;99.90
7496;DHT22;3789;47.064;15.482;2022-09-09T16:17:06;18.30;99.90
7496;DHT22;3789;47.064;15.482;2022-09-09T16:19:34;18.20;99.90
7496;DHT22;3789;47.064;15.482;2022-09-09T16:22:05;18.20;99.90
7496;DHT22;3789;47.064;15.482;2022-09-09T16:24:35;18.10;99.90
7496;DHT22;3789;47.064;15.482;2022-09-09T16:27:08;18.00;99.90
7496;DHT22;3789;47.064;15.482;2022-09-09T16:29:36;17.90;99.90
7496;DHT22;3789;47.064;15.482;2022-09-09T16:32:03;17.80;99.90
7496;DHT22;3789;47.064;15.482;2022-09-09T16:34:31;17.80;99.90
7496;DHT22;3789;47.064;15.482;2022-09-09T16:37:00;17.80;99.90
7496;DHT22;3789;47.064;15.482;2022-09-09T16:39:29;17.70;99.90
7496;DHT22;3789;47.064;15.482;2022-09-09T16:41:57;17.70;99.90
7496;DHT22;3789;47.064;15.482;2022-09-09T16:44:24;17.70;99.90
7496;DHT22;3789;47.064;15.482;2022-09-09T16:46:53;17.70;99.90
7496;DHT22;3789;47.064;15.482;2022-09-09T16:49:26;17.70;99.90
7496;DHT22;3789;47.064;15.482;2022-09-09T16:51:57;17.80;99.90
7496;DHT22;3789;47.064;15.482;2022-09-09T16:54:25;17.80;99.90
7496;DHT22;3789;47.064;15.482;2022-09-09T16:56:54;17.70;99.90
7496;DHT22;3789;47.064;15.482;2022-09-09T16:59:23;17.70;99.90
7496;DHT22;3789;47.064;15.482;2022-09-09T17:01:51;17.70;99.90
7496;DHT22;3789;47.064;15.482;2022-09-09T17:04:26;17.80;99.90
7496;DHT22;3789;47.064;15.482;2022-09-09T17:07:11;17.80;99.90
7496;DHT22;3789;47.064;15.482;2022-09-09T17:09:39;17.90;99.90
7496;DHT22;3789;47.064;15.482;2022-09-09T17:12:06;17.90;99.90
7496;DHT22;3789;47.064;15.482;2022-09-09T17:14:35;17.80;99.90
7496;DHT22;3789;47.064;15.482;2022-09-09T17:17:02;17.80;99.90
7496;DHT22;3789;47.064;15.482;2022-09-09T17:19:51;17.90;99.90
7496;DHT22;3789;47.064;15.482;2022-09-09T17:22:18;18.00;99.90
7496;DHT22;3789;47.064;15.482;2022-09-09T17:24:47;18.00;99.90
7496;DHT22;3789;47.064;15.482;2022-09-09T17:27:14;18.00;99.90
7496;DHT22;3789;47.064;15.482;2022-09-09T17:29:41;18.00;99.90
7496;DHT22;3789;47.064;15.482;2022-09-09T17:32:08;18.10;99.90
7496;DHT22;3789;47.064;15.482;2022-09-09T17:34:36;18.10;99.90
7496;DHT22;3789;47.064;15.482;2022-09-09T17:37:05;18.00;99.90
7496;DHT22;3789;47.064;15.482;2022-09-09T17:39:33;17.90;99.90
7496;DHT22;3789;47.064;15.482;2022-09-09T17:42:01;17.90;99.90
7496;DHT22;3789;47.064;15.482;2022-09-09T17:44:28;17.90;99.90
7496;DHT22;3789;47.064;15.482;2022-09-09T17:46:55;18.00;99.90
7496;DHT22;3789;47.064;15.482;2022-09-09T17:49:22;17.80;99.90
7496;DHT22;3789;47.064;15.482;2022-09-09T17:51:50;17.70;99.90
7496;DHT22;3789;47.064;15.482;2022-09-09T17:54:19;17.60;99.90
7496;DHT22;3789;47.064;15.482;2022-09-09T17:56:47;17.50;99.90
7496;DHT22;3789;47.064;15.482;2022-09-09T17:59:16;17.40;99.90
7496;DHT22;3789;47.064;15.482;2022-09-09T18:01:47;17.30;99.90
7496;DHT22;3789;47.064;15.482;2022-09-09T18:04:16;17.20;99.90
7496;DHT22;3789;47.064;15.482;2022-09-09T18:06:47;17.10;99.90
7496;DHT22;3789;47.064;15.482;2022-09-09T18:09:18;17.10;99.90
7496;DHT22;3789;47.064;15.482;2022-09-09T18:11:48;17.00;99.90
7496;DHT22;3789;47.064;15.482;2022-09-09T18:14:18;17.00;99.90
7496;DHT22;3789;47.064;15.482;2022-09-09T18:17:02;17.00;99.90
7496;DHT22;3789;47.064;15.482;2022-09-09T18:19:31;17.20;99.90
7496;DHT22;3789;47.064;15.482;2022-09-09T18:22:00;17.40;99.90
7496;DHT22;3789;47.064;15.482;2022-09-09T18:24:30;17.40;99.90
7496;DHT22;3789;47.064;15.482;2022-09-09T18:26:58;17.50;99.90
7496;DHT22;3789;47.064;15.482;2022-09-09T18:29:26;17.60;99.90
7496;DHT22;3789;47.064;15.482;2022-09-09T18:31:55;17.50;99.90